sensor_id;sensor_type;location;lat;lon;timestamp;P1;durP1;ratioP1;P2;durP2;ratioP2
57643;SDS011;43474;46.510;6.686;2024-01-25T00:01:21;2.97;;;1.25;;
57643;SDS011;43474;46.510;6.686;2024-01-25T00:03:50;1.45;;;0.80;;
57643;SDS011;43474;46.510;6.686;2024-01-25T00:06:21;0.93;;;0.70;;
57643;SDS011;43474;46.510;6.686;2024-01-25T00:08:47;1.50;;;0.82;;
57643;SDS011;43474;46.510;6.686;2024-01-25T00:11:13;1.30;;;0.82;;
57643;SDS011;43474;46.510;6.686;2024-01-25T00:13:39;0.98;;;0.88;;
57643;SDS011;43474;46.510;6.686;2024-01-25T00:16:07;1.88;;;1.35;;
57643;SDS011;43474;46.510;6.686;2024-01-25T00:18:34;0.50;;;0.50;;
57643;SDS011;43474;46.510;6.686;2024-01-25T00:21:02;1.83;;;0.90;;
57643;SDS011;43474;46.510;6.686;2024-01-25T00:23:32;3.95;;;1.00;;
57643;SDS011;43474;46.510;6.686;2024-01-25T00:25:58;0.82;;;0.80;;
57643;SDS011;43474;46.510;6.686;2024-01-25T00:28:25;0.50;;;0.43;;
57643;SDS011;43474;46.510;6.686;2024-01-25T00:30:51;2.28;;;0.95;;
57643;SDS011;43474;46.510;6.686;2024-01-25T00:33:18;1.70;;;0.60;;
57643;SDS011;43474;46.510;6.686;2024-01-25T00:35:43;1.05;;;0.80;;
57643;SDS011;43474;46.510;6.686;2024-01-25T00:38:15;5.43;;;1.25;;
57643;SDS011;43474;46.510;6.686;2024-01-25T00:40:41;4.20;;;1.52;;
57643;SDS011;43474;46.510;6.686;2024-01-25T00:43:10;9.63;;;1.90;;
57643;SDS011;43474;46.510;6.686;2024-01-25T00:45:36;4.80;;;1.88;;
57643;SDS011;43474;46.510;6.686;2024-01-25T00:48:02;2.85;;;1.17;;
57643;SDS011;43474;46.510;6.686;2024-01-25T00:50:28;2.67;;;1.88;;
57643;SDS011;43474;46.510;6.686;2024-01-25T00:52:56;2.45;;;0.90;;
57643;SDS011;43474;46.510;6.686;2024-01-25T00:55:22;2.83;;;0.85;;
57643;SDS011;43474;46.510;6.686;2024-01-25T00:57:48;2.97;;;1.35;;
57643;SDS011;43474;46.510;6.686;2024-01-25T01:00:15;1.83;;;1.02;;
57643;SDS011;43474;46.510;6.686;2024-01-25T01:02:44;1.77;;;1.08;;
57643;SDS011;43474;46.510;6.686;2024-01-25T01:05:11;0.70;;;0.70;;
57643;SDS011;43474;46.510;6.686;2024-01-25T01:07:38;1.33;;;1.13;;
57643;SDS011;43474;46.510;6.686;2024-01-25T01:10:08;2.85;;;0.90;;
57643;SDS011;43474;46.510;6.686;2024-01-25T01:12:34;2.20;;;0.95;;
57643;SDS011;43474;46.510;6.686;2024-01-25T01:15:00;1.58;;;1.10;;
57643;SDS011;43474;46.510;6.686;2024-01-25T01:17:29;4.82;;;1.25;;
57643;SDS011;43474;46.510;6.686;2024-01-25T01:19:55;1.98;;;0.93;;
57643;SDS011;43474;46.510;6.686;2024-01-25T01:22:21;1.48;;;1.13;;
57643;SDS011;43474;46.510;6.686;2024-01-25T01:24:47;2.53;;;1.38;;
57643;SDS011;43474;46.510;6.686;2024-01-25T01:27:16;2.13;;;1.05;;
57643;SDS011;43474;46.510;6.686;2024-01-25T01:29:41;1.73;;;0.80;;
57643;SDS011;43474;46.510;6.686;2024-01-25T01:32:07;1.63;;;0.82;;
57643;SDS011;43474;46.510;6.686;2024-01-25T01:34:34;2.85;;;1.40;;
57643;SDS011;43474;46.510;6.686;2024-01-25T01:37:00;2.85;;;1.38;;
57643;SDS011;43474;46.510;6.686;2024-01-25T01:39:28;1.35;;;0.98;;
57643;SDS011;43474;46.510;6.686;2024-01-25T01:41:54;4.55;;;1.48;;
57643;SDS011;43474;46.510;6.686;2024-01-25T01:44:20;5.15;;;1.10;;
57643;SDS011;43474;46.510;6.686;2024-01-25T01:46:50;3.67;;;1.10;;
57643;SDS011;43474;46.510;6.686;2024-01-25T01:49:16;0.98;;;0.75;;
57643;SDS011;43474;46.510;6.686;2024-01-25T01:51:43;1.33;;;0.93;;
57643;SDS011;43474;46.510;6.686;2024-01-25T01:54:09;2.28;;;1.33;;
57643;SDS011;43474;46.510;6.686;2024-01-25T01:56:38;1.75;;;0.70;;
57643;SDS011;43474;46.510;6.686;2024-01-25T01:59:09;1.55;;;0.60;;
57643;SDS011;43474;46.510;6.686;2024-01-25T02:01:37;1.52;;;0.90;;
57643;SDS011;43474;46.510;6.686;2024-01-25T02:04:03;0.50;;;0.50;;
57643;SDS011;43474;46.510;6.686;2024-01-25T02:06:30;0.63;;;0.50;;
57643;SDS011;43474;46.510;6.686;2024-01-25T02:08:57;1.60;;;0.63;;
57643;SDS011;43474;46.510;6.686;2024-01-25T02:11:24;2.67;;;0.80;;
57643;SDS011;43474;46.510;6.686;2024-01-25T02:13:51;1.67;;;0.70;;
57643;SDS011;43474;46.510;6.686;2024-01-25T02:16:17;0.90;;;0.80;;
57643;SDS011;43474;46.510;6.686;2024-01-25T02:18:45;2.35;;;0.70;;
57643;SDS011;43474;46.510;6.686;2024-01-25T02:21:15;1.67;;;0.60;;
57643;SDS011;43474;46.510;6.686;2024-01-25T02:23:40;0.88;;;0.60;;
57643;SDS011;43474;46.510;6.686;2024-01-25T02:26:06;0.43;;;0.40;;
57643;SDS011;43474;46.510;6.686;2024-01-25T02:28:32;0.57;;;0.43;;
57643;SDS011;43474;46.510;6.686;2024-01-25T02:30:59;1.08;;;0.38;;
57643;SDS011;43474;46.510;6.686;2024-01-25T02:33:27;0.65;;;0.40;;
57643;SDS011;43474;46.510;6.686;2024-01-25T02:35:53;0.52;;;0.40;;
57643;SDS011;43474;46.510;6.686;2024-01-25T02:38:19;0.32;;;0.32;;
57643;SDS011;43474;46.510;6.686;2024-01-25T02:40:47;0.57;;;0.52;;
57643;SDS011;43474;46.510;6.686;2024-01-25T02:43:13;1.23;;;0.80;;
57643;SDS011;43474;46.510;6.686;2024-01-25T02:45:39;0.70;;;0.60;;
57643;SDS011;43474;46.510;6.686;2024-01-25T02:48:05;1.40;;;0.80;;
57643;SDS011;43474;46.510;6.686;2024-01-25T02:50:31;0.88;;;0.77;;
57643;SDS011;43474;46.510;6.686;2024-01-25T02:53:00;0.68;;;0.65;;
57643;SDS011;43474;46.510;6.686;2024-01-25T02:55:26;0.52;;;0.52;;
57643;SDS011;43474;46.510;6.686;2024-01-25T02:57:53;0.90;;;0.50;;
57643;SDS011;43474;46.510;6.686;2024-01-25T03:00:19;1.17;;;0.70;;
57643;SDS011;43474;46.510;6.686;2024-01-25T03:02:45;0.68;;;0.60;;
57643;SDS011;43474;46.510;6.686;2024-01-25T03:05:11;0.73;;;0.50;;
57643;SDS011;43474;46.510;6.686;2024-01-25T03:07:37;1.17;;;0.85;;
57643;SDS011;43474;46.510;6.686;2024-01-25T03:10:03;0.65;;;0.52;;
57643;SDS011;43474;46.510;6.686;2024-01-25T03:12:29;1.30;;;0.80;;
57643;SDS011;43474;46.510;6.686;2024-01-25T03:14:56;2.25;;;0.68;;
57643;SDS011;43474;46.510;6.686;2024-01-25T03:17:22;1.42;;;0.88;;
57643;SDS011;43474;46.510;6.686;2024-01-25T03:19:48;0.55;;;0.35;;
57643;SDS011;43474;46.510;6.686;2024-01-25T03:22:14;1.23;;;0.70;;
57643;SDS011;43474;46.510;6.686;2024-01-25T03:24:40;0.77;;;0.47;;
57643;SDS011;43474;46.510;6.686;2024-01-25T03:27:06;0.77;;;0.52;;
57643;SDS011;43474;46.510;6.686;2024-01-25T03:29:41;0.73;;;0.35;;
57643;SDS011;43474;46.510;6.686;2024-01-25T03:32:09;0.30;;;0.20;;
57643;SDS011;43474;46.510;6.686;2024-01-25T03:34:35;0.30;;;0.30;;
57643;SDS011;43474;46.510;6.686;2024-01-25T03:37:01;0.08;;;0.08;;
57643;SDS011;43474;46.510;6.686;2024-01-25T03:39:28;0.65;;;0.50;;
57643;SDS011;43474;46.510;6.686;2024-01-25T03:41:54;0.63;;;0.30;;
57643;SDS011;43474;46.510;6.686;2024-01-25T03:44:20;2.80;;;0.60;;
57643;SDS011;43474;46.510;6.686;2024-01-25T03:46:46;0.30;;;0.30;;
57643;SDS011;43474;46.510;6.686;2024-01-25T03:49:12;0.75;;;0.30;;
57643;SDS011;43474;46.510;6.686;2024-01-25T03:51:37;0.38;;;0.28;;
57643;SDS011;43474;46.510;6.686;2024-01-25T03:54:03;0.73;;;0.40;;
57643;SDS011;43474;46.510;6.686;2024-01-25T03:56:29;0.98;;;0.47;;
57643;SDS011;43474;46.510;6.686;2024-01-25T03:58:55;2.20;;;0.50;;
57643;SDS011;43474;46.510;6.686;2024-01-25T04:01:21;0.55;;;0.40;;
57643;SDS011;43474;46.510;6.686;2024-01-25T04:03:47;0.93;;;0.47;;
57643;SDS011;43474;46.510;6.686;2024-01-25T04:06:13;0.60;;;0.40;;
57643;SDS011;43474;46.510;6.686;2024-01-25T04:08:39;0.77;;;0.50;;
57643;SDS011;43474;46.510;6.686;2024-01-25T04:11:05;1.65;;;0.73;;
57643;SDS011;43474;46.510;6.686;2024-01-25T04:13:31;1.50;;;0.60;;
57643;SDS011;43474;46.510;6.686;2024-01-25T04:15:57;1.23;;;0.50;;
57643;SDS011;43474;46.510;6.686;2024-01-25T04:18:23;0.63;;;0.35;;
57643;SDS011;43474;46.510;6.686;2024-01-25T04:20:48;0.60;;;0.38;;
57643;SDS011;43474;46.510;6.686;2024-01-25T04:23:16;1.20;;;0.40;;
57643;SDS011;43474;46.510;6.686;2024-01-25T04:25:42;0.55;;;0.22;;
57643;SDS011;43474;46.510;6.686;2024-01-25T04:28:08;1.33;;;0.60;;
57643;SDS011;43474;46.510;6.686;2024-01-25T04:30:34;1.08;;;0.70;;
57643;SDS011;43474;46.510;6.686;2024-01-25T04:33:00;0.80;;;0.65;;
57643;SDS011;43474;46.510;6.686;2024-01-25T04:35:25;1.42;;;0.95;;
57643;SDS011;43474;46.510;6.686;2024-01-25T04:37:51;0.82;;;0.82;;
57643;SDS011;43474;46.510;6.686;2024-01-25T04:40:17;3.03;;;1.08;;
57643;SDS011;43474;46.510;6.686;2024-01-25T04:42:43;2.22;;;0.82;;
57643;SDS011;43474;46.510;6.686;2024-01-25T04:45:09;0.75;;;0.60;;
57643;SDS011;43474;46.510;6.686;2024-01-25T04:47:36;1.35;;;0.68;;
57643;SDS011;43474;46.510;6.686;2024-01-25T04:50:04;1.63;;;0.65;;
57643;SDS011;43474;46.510;6.686;2024-01-25T04:52:30;1.00;;;0.70;;
57643;SDS011;43474;46.510;6.686;2024-01-25T04:54:55;1.13;;;0.40;;
57643;SDS011;43474;46.510;6.686;2024-01-25T04:57:21;2.33;;;0.60;;
57643;SDS011;43474;46.510;6.686;2024-01-25T04:59:47;0.60;;;0.60;;
57643;SDS011;43474;46.510;6.686;2024-01-25T05:02:13;1.02;;;0.50;;
57643;SDS011;43474;46.510;6.686;2024-01-25T05:04:38;0.40;;;0.40;;
57643;SDS011;43474;46.510;6.686;2024-01-25T05:07:05;0.82;;;0.70;;
57643;SDS011;43474;46.510;6.686;2024-01-25T05:09:30;0.85;;;0.60;;
57643;SDS011;43474;46.510;6.686;2024-01-25T05:11:57;0.68;;;0.68;;
57643;SDS011;43474;46.510;6.686;2024-01-25T05:14:24;0.85;;;0.70;;
57643;SDS011;43474;46.510;6.686;2024-01-25T05:16:50;0.70;;;0.43;;
57643;SDS011;43474;46.510;6.686;2024-01-25T05:19:16;2.45;;;0.50;;
57643;SDS011;43474;46.510;6.686;2024-01-25T05:21:42;1.33;;;0.73;;
57643;SDS011;43474;46.510;6.686;2024-01-25T05:24:07;1.05;;;0.63;;
57643;SDS011;43474;46.510;6.686;2024-01-25T05:26:35;1.10;;;0.65;;
57643;SDS011;43474;46.510;6.686;2024-01-25T05:29:01;1.48;;;0.68;;
57643;SDS011;43474;46.510;6.686;2024-01-25T05:31:27;1.27;;;0.70;;
57643;SDS011;43474;46.510;6.686;2024-01-25T05:33:52;1.30;;;0.70;;
57643;SDS011;43474;46.510;6.686;2024-01-25T05:36:18;0.73;;;0.60;;
57643;SDS011;43474;46.510;6.686;2024-01-25T05:38:45;0.50;;;0.40;;
57643;SDS011;43474;46.510;6.686;2024-01-25T05:41:11;0.40;;;0.40;;
57643;SDS011;43474;46.510;6.686;2024-01-25T05:43:37;0.95;;;0.30;;
57643;SDS011;43474;46.510;6.686;2024-01-25T05:46:03;1.30;;;0.73;;
57643;SDS011;43474;46.510;6.686;2024-01-25T05:48:28;1.15;;;0.60;;
57643;SDS011;43474;46.510;6.686;2024-01-25T05:50:54;1.45;;;0.85;;
57643;SDS011;43474;46.510;6.686;2024-01-25T05:53:20;1.67;;;0.75;;
57643;SDS011;43474;46.510;6.686;2024-01-25T05:55:46;0.60;;;0.40;;
57643;SDS011;43474;46.510;6.686;2024-01-25T05:58:12;1.02;;;0.65;;
57643;SDS011;43474;46.510;6.686;2024-01-25T06:00:38;1.08;;;0.47;;
57643;SDS011;43474;46.510;6.686;2024-01-25T06:03:04;0.75;;;0.43;;
57643;SDS011;43474;46.510;6.686;2024-01-25T06:05:30;1.48;;;0.60;;
57643;SDS011;43474;46.510;6.686;2024-01-25T06:07:56;0.57;;;0.57;;
57643;SDS011;43474;46.510;6.686;2024-01-25T06:10:22;1.10;;;0.50;;
57643;SDS011;43474;46.510;6.686;2024-01-25T06:12:47;1.42;;;0.80;;
57643;SDS011;43474;46.510;6.686;2024-01-25T06:15:13;0.60;;;0.60;;
57643;SDS011;43474;46.510;6.686;2024-01-25T06:17:39;0.55;;;0.52;;
57643;SDS011;43474;46.510;6.686;2024-01-25T06:20:05;4.90;;;1.38;;
57643;SDS011;43474;46.510;6.686;2024-01-25T06:22:31;0.82;;;0.35;;
57643;SDS011;43474;46.510;6.686;2024-01-25T06:24:56;0.50;;;0.50;;
57643;SDS011;43474;46.510;6.686;2024-01-25T06:27:22;1.33;;;0.82;;
57643;SDS011;43474;46.510;6.686;2024-01-25T06:29:48;0.93;;;0.57;;
57643;SDS011;43474;46.510;6.686;2024-01-25T06:32:14;0.68;;;0.68;;
57643;SDS011;43474;46.510;6.686;2024-01-25T06:34:40;0.85;;;0.45;;
57643;SDS011;43474;46.510;6.686;2024-01-25T06:37:05;1.45;;;0.52;;
57643;SDS011;43474;46.510;6.686;2024-01-25T06:39:31;2.78;;;0.70;;
57643;SDS011;43474;46.510;6.686;2024-01-25T06:41:57;1.17;;;0.73;;
57643;SDS011;43474;46.510;6.686;2024-01-25T06:44:25;0.93;;;0.50;;
57643;SDS011;43474;46.510;6.686;2024-01-25T06:46:53;1.38;;;0.52;;
57643;SDS011;43474;46.510;6.686;2024-01-25T06:49:19;0.93;;;0.75;;
57643;SDS011;43474;46.510;6.686;2024-01-25T06:51:44;0.60;;;0.57;;
57643;SDS011;43474;46.510;6.686;2024-01-25T06:54:10;1.13;;;0.55;;
57643;SDS011;43474;46.510;6.686;2024-01-25T06:56:36;0.60;;;0.60;;
57643;SDS011;43474;46.510;6.686;2024-01-25T06:59:02;0.75;;;0.73;;
57643;SDS011;43474;46.510;6.686;2024-01-25T07:01:28;3.55;;;1.52;;
57643;SDS011;43474;46.510;6.686;2024-01-25T07:03:55;1.08;;;0.70;;
57643;SDS011;43474;46.510;6.686;2024-01-25T07:06:21;0.85;;;0.70;;
57643;SDS011;43474;46.510;6.686;2024-01-25T07:08:47;2.70;;;0.85;;
57643;SDS011;43474;46.510;6.686;2024-01-25T07:11:13;2.00;;;1.10;;
57643;SDS011;43474;46.510;6.686;2024-01-25T07:13:40;1.08;;;0.88;;
57643;SDS011;43474;46.510;6.686;2024-01-25T07:16:06;1.02;;;0.77;;
57643;SDS011;43474;46.510;6.686;2024-01-25T07:18:32;0.60;;;0.43;;
57643;SDS011;43474;46.510;6.686;2024-01-25T07:20:57;1.80;;;0.40;;
57643;SDS011;43474;46.510;6.686;2024-01-25T07:23:23;2.15;;;1.00;;
57643;SDS011;43474;46.510;6.686;2024-01-25T07:25:49;2.13;;;0.80;;
57643;SDS011;43474;46.510;6.686;2024-01-25T07:28:18;1.23;;;0.88;;
57643;SDS011;43474;46.510;6.686;2024-01-25T07:30:46;1.60;;;1.02;;
57643;SDS011;43474;46.510;6.686;2024-01-25T07:33:12;2.97;;;1.65;;
57643;SDS011;43474;46.510;6.686;2024-01-25T07:35:38;1.98;;;1.10;;
57643;SDS011;43474;46.510;6.686;2024-01-25T07:38:07;3.15;;;0.93;;
57643;SDS011;43474;46.510;6.686;2024-01-25T07:40:33;3.72;;;1.30;;
57643;SDS011;43474;46.510;6.686;2024-01-25T07:42:59;1.38;;;0.88;;
57643;SDS011;43474;46.510;6.686;2024-01-25T07:45:24;1.30;;;0.80;;
57643;SDS011;43474;46.510;6.686;2024-01-25T07:47:50;2.35;;;1.33;;
57643;SDS011;43474;46.510;6.686;2024-01-25T07:50:16;3.55;;;1.27;;
57643;SDS011;43474;46.510;6.686;2024-01-25T07:52:42;2.67;;;1.45;;
57643;SDS011;43474;46.510;6.686;2024-01-25T07:55:08;2.55;;;1.13;;
57643;SDS011;43474;46.510;6.686;2024-01-25T07:57:34;2.92;;;1.70;;
57643;SDS011;43474;46.510;6.686;2024-01-25T08:00:00;3.00;;;1.80;;
57643;SDS011;43474;46.510;6.686;2024-01-25T08:02:26;3.45;;;1.38;;
57643;SDS011;43474;46.510;6.686;2024-01-25T08:04:51;1.73;;;1.17;;
57643;SDS011;43474;46.510;6.686;2024-01-25T08:07:18;1.48;;;1.38;;
57643;SDS011;43474;46.510;6.686;2024-01-25T08:09:43;3.55;;;2.10;;
57643;SDS011;43474;46.510;6.686;2024-01-25T08:12:09;2.58;;;1.48;;
57643;SDS011;43474;46.510;6.686;2024-01-25T08:14:35;2.45;;;1.10;;
57643;SDS011;43474;46.510;6.686;2024-01-25T08:17:01;1.90;;;1.30;;
57643;SDS011;43474;46.510;6.686;2024-01-25T08:19:29;5.70;;;1.77;;
57643;SDS011;43474;46.510;6.686;2024-01-25T08:21:58;4.03;;;2.20;;
57643;SDS011;43474;46.510;6.686;2024-01-25T08:24:26;5.07;;;2.30;;
57643;SDS011;43474;46.510;6.686;2024-01-25T08:26:51;6.05;;;2.65;;
57643;SDS011;43474;46.510;6.686;2024-01-25T08:29:22;1.80;;;1.20;;
57643;SDS011;43474;46.510;6.686;2024-01-25T08:31:48;2.47;;;1.35;;
57643;SDS011;43474;46.510;6.686;2024-01-25T08:34:14;1.35;;;0.80;;
57643;SDS011;43474;46.510;6.686;2024-01-25T08:36:40;2.78;;;1.20;;
57643;SDS011;43474;46.510;6.686;2024-01-25T08:39:05;1.95;;;1.08;;
57643;SDS011;43474;46.510;6.686;2024-01-25T08:41:34;1.27;;;0.90;;
57643;SDS011;43474;46.510;6.686;2024-01-25T08:44:00;1.85;;;1.00;;
57643;SDS011;43474;46.510;6.686;2024-01-25T08:46:26;1.52;;;0.82;;
57643;SDS011;43474;46.510;6.686;2024-01-25T08:48:52;3.22;;;1.67;;
57643;SDS011;43474;46.510;6.686;2024-01-25T08:51:18;2.33;;;1.55;;
57643;SDS011;43474;46.510;6.686;2024-01-25T08:53:43;1.52;;;1.42;;
57643;SDS011;43474;46.510;6.686;2024-01-25T08:56:09;6.35;;;2.45;;
57643;SDS011;43474;46.510;6.686;2024-01-25T08:58:35;3.80;;;2.28;;
57643;SDS011;43474;46.510;6.686;2024-01-25T09:01:03;4.57;;;1.67;;
57643;SDS011;43474;46.510;6.686;2024-01-25T09:03:28;2.55;;;1.50;;
57643;SDS011;43474;46.510;6.686;2024-01-25T09:05:54;1.88;;;1.27;;
57643;SDS011;43474;46.510;6.686;2024-01-25T09:08:20;2.92;;;1.80;;
57643;SDS011;43474;46.510;6.686;2024-01-25T09:10:46;4.65;;;1.80;;
57643;SDS011;43474;46.510;6.686;2024-01-25T09:13:16;3.10;;;1.90;;
57643;SDS011;43474;46.510;6.686;2024-01-25T09:15:42;2.83;;;1.92;;
57643;SDS011;43474;46.510;6.686;2024-01-25T09:18:08;4.07;;;2.53;;
57643;SDS011;43474;46.510;6.686;2024-01-25T09:20:34;5.38;;;3.10;;
57643;SDS011;43474;46.510;6.686;2024-01-25T09:22:59;6.03;;;3.30;;
57643;SDS011;43474;46.510;6.686;2024-01-25T09:25:26;4.22;;;3.15;;
57643;SDS011;43474;46.510;6.686;2024-01-25T09:27:51;3.85;;;2.33;;
57643;SDS011;43474;46.510;6.686;2024-01-25T09:30:17;3.70;;;2.38;;
57643;SDS011;43474;46.510;6.686;2024-01-25T09:32:43;3.72;;;2.70;;
57643;SDS011;43474;46.510;6.686;2024-01-25T09:35:09;4.65;;;2.53;;
57643;SDS011;43474;46.510;6.686;2024-01-25T09:37:35;6.45;;;2.63;;
57643;SDS011;43474;46.510;6.686;2024-01-25T09:40:01;4.97;;;3.22;;
57643;SDS011;43474;46.510;6.686;2024-01-25T09:42:29;5.63;;;2.58;;
57643;SDS011;43474;46.510;6.686;2024-01-25T09:44:55;3.83;;;2.60;;
57643;SDS011;43474;46.510;6.686;2024-01-25T09:47:20;4.15;;;2.78;;
57643;SDS011;43474;46.510;6.686;2024-01-25T09:49:47;4.18;;;2.60;;
57643;SDS011;43474;46.510;6.686;2024-01-25T09:52:15;3.13;;;2.28;;
57643;SDS011;43474;46.510;6.686;2024-01-25T09:54:45;4.28;;;2.22;;
57643;SDS011;43474;46.510;6.686;2024-01-25T09:57:16;2.85;;;2.15;;
57643;SDS011;43474;46.510;6.686;2024-01-25T09:59:46;3.45;;;2.33;;
57643;SDS011;43474;46.510;6.686;2024-01-25T10:02:16;2.55;;;1.85;;
57643;SDS011;43474;46.510;6.686;2024-01-25T10:04:42;4.60;;;2.03;;
57643;SDS011;43474;46.510;6.686;2024-01-25T10:07:10;2.35;;;1.70;;
57643;SDS011;43474;46.510;6.686;2024-01-25T10:09:40;2.17;;;1.48;;
57643;SDS011;43474;46.510;6.686;2024-01-25T10:12:09;3.20;;;1.70;;
57643;SDS011;43474;46.510;6.686;2024-01-25T10:14:35;2.58;;;1.65;;
57643;SDS011;43474;46.510;6.686;2024-01-25T10:17:00;3.15;;;1.80;;
57643;SDS011;43474;46.510;6.686;2024-01-25T10:19:27;3.70;;;2.08;;
57643;SDS011;43474;46.510;6.686;2024-01-25T10:21:52;2.97;;;1.88;;
57643;SDS011;43474;46.510;6.686;2024-01-25T10:24:18;2.97;;;1.83;;
57643;SDS011;43474;46.510;6.686;2024-01-25T10:26:44;2.38;;;1.70;;
57643;SDS011;43474;46.510;6.686;2024-01-25T10:29:12;2.13;;;1.60;;
57643;SDS011;43474;46.510;6.686;2024-01-25T10:31:44;2.88;;;1.80;;
57643;SDS011;43474;46.510;6.686;2024-01-25T10:34:13;3.72;;;1.75;;
57643;SDS011;43474;46.510;6.686;2024-01-25T10:36:39;2.28;;;2.05;;
57643;SDS011;43474;46.510;6.686;2024-01-25T10:39:06;2.75;;;1.85;;
57643;SDS011;43474;46.510;6.686;2024-01-25T10:41:34;2.45;;;1.65;;
57643;SDS011;43474;46.510;6.686;2024-01-25T10:44:00;2.15;;;1.60;;
57643;SDS011;43474;46.510;6.686;2024-01-25T10:46:27;2.40;;;1.80;;
57643;SDS011;43474;46.510;6.686;2024-01-25T10:48:57;2.20;;;1.63;;
57643;SDS011;43474;46.510;6.686;2024-01-25T10:51:24;1.95;;;1.65;;
57643;SDS011;43474;46.510;6.686;2024-01-25T10:53:52;2.28;;;1.52;;
57643;SDS011;43474;46.510;6.686;2024-01-25T10:56:21;2.38;;;1.67;;
57643;SDS011;43474;46.510;6.686;2024-01-25T10:58:47;2.72;;;1.75;;
57643;SDS011;43474;46.510;6.686;2024-01-25T11:01:13;3.25;;;1.77;;
57643;SDS011;43474;46.510;6.686;2024-01-25T11:03:45;1.58;;;1.30;;
57643;SDS011;43474;46.510;6.686;2024-01-25T11:06:14;1.58;;;1.42;;
57643;SDS011;43474;46.510;6.686;2024-01-25T11:08:40;4.03;;;2.10;;
57643;SDS011;43474;46.510;6.686;2024-01-25T11:11:07;1.90;;;1.50;;
57643;SDS011;43474;46.510;6.686;2024-01-25T11:13:43;2.10;;;1.55;;
57643;SDS011;43474;46.510;6.686;2024-01-25T11:16:15;3.30;;;1.42;;
57643;SDS011;43474;46.510;6.686;2024-01-25T11:18:50;2.08;;;1.20;;
57643;SDS011;43474;46.510;6.686;2024-01-25T11:21:24;2.20;;;1.30;;
57643;SDS011;43474;46.510;6.686;2024-01-25T11:24:01;2.65;;;1.73;;
57643;SDS011;43474;46.510;6.686;2024-01-25T11:26:33;3.63;;;2.30;;
57643;SDS011;43474;46.510;6.686;2024-01-25T11:28:59;1.92;;;1.45;;
57643;SDS011;43474;46.510;6.686;2024-01-25T11:31:33;3.92;;;2.13;;
57643;SDS011;43474;46.510;6.686;2024-01-25T11:34:00;2.05;;;1.73;;
57643;SDS011;43474;46.510;6.686;2024-01-25T11:36:29;2.58;;;1.80;;
57643;SDS011;43474;46.510;6.686;2024-01-25T11:38:58;2.03;;;1.55;;
57643;SDS011;43474;46.510;6.686;2024-01-25T11:41:32;2.92;;;1.60;;
57643;SDS011;43474;46.510;6.686;2024-01-25T11:44:01;3.97;;;2.00;;
57643;SDS011;43474;46.510;6.686;2024-01-25T11:46:28;4.18;;;1.70;;
57643;SDS011;43474;46.510;6.686;2024-01-25T11:49:02;2.33;;;1.67;;
57643;SDS011;43474;46.510;6.686;2024-01-25T11:51:29;3.17;;;2.40;;
57643;SDS011;43474;46.510;6.686;2024-01-25T11:53:55;2.38;;;1.55;;
57643;SDS011;43474;46.510;6.686;2024-01-25T11:56:24;2.90;;;1.88;;
57643;SDS011;43474;46.510;6.686;2024-01-25T11:59:05;3.38;;;1.90;;
57643;SDS011;43474;46.510;6.686;2024-01-25T12:01:32;2.25;;;1.60;;
57643;SDS011;43474;46.510;6.686;2024-01-25T12:04:01;2.17;;;1.48;;
57643;SDS011;43474;46.510;6.686;2024-01-25T12:06:29;6.82;;;2.00;;
57643;SDS011;43474;46.510;6.686;2024-01-25T12:09:08;2.25;;;1.80;;
57643;SDS011;43474;46.510;6.686;2024-01-25T12:11:42;4.00;;;1.90;;
57643;SDS011;43474;46.510;6.686;2024-01-25T12:14:09;2.45;;;1.60;;
57643;SDS011;43474;46.510;6.686;2024-01-25T12:16:37;2.47;;;1.30;;
57643;SDS011;43474;46.510;6.686;2024-01-25T12:19:03;2.30;;;1.38;;
57643;SDS011;43474;46.510;6.686;2024-01-25T12:21:29;2.03;;;1.20;;
57643;SDS011;43474;46.510;6.686;2024-01-25T12:23:58;2.20;;;1.17;;
57643;SDS011;43474;46.510;6.686;2024-01-25T12:26:24;2.20;;;1.27;;
57643;SDS011;43474;46.510;6.686;2024-01-25T12:28:50;1.40;;;1.05;;
57643;SDS011;43474;46.510;6.686;2024-01-25T12:31:19;1.80;;;0.95;;
57643;SDS011;43474;46.510;6.686;2024-01-25T12:33:56;0.82;;;0.70;;
57643;SDS011;43474;46.510;6.686;2024-01-25T12:36:30;1.15;;;0.80;;
57643;SDS011;43474;46.510;6.686;2024-01-25T12:39:01;2.20;;;1.00;;
57643;SDS011;43474;46.510;6.686;2024-01-25T12:41:29;1.55;;;1.00;;
57643;SDS011;43474;46.510;6.686;2024-01-25T12:43:55;1.08;;;0.98;;
57643;SDS011;43474;46.510;6.686;2024-01-25T12:46:21;1.27;;;1.00;;
57643;SDS011;43474;46.510;6.686;2024-01-25T12:48:55;3.13;;;1.30;;
57643;SDS011;43474;46.510;6.686;2024-01-25T12:51:22;1.88;;;1.20;;
57643;SDS011;43474;46.510;6.686;2024-01-25T12:53:49;1.20;;;0.90;;
57643;SDS011;43474;46.510;6.686;2024-01-25T12:56:16;1.67;;;1.38;;
57643;SDS011;43474;46.510;6.686;2024-01-25T12:58:45;1.42;;;1.02;;
57643;SDS011;43474;46.510;6.686;2024-01-25T13:01:13;1.25;;;0.90;;
57643;SDS011;43474;46.510;6.686;2024-01-25T13:03:39;1.33;;;0.85;;
57643;SDS011;43474;46.510;6.686;2024-01-25T13:06:30;2.05;;;1.33;;
57643;SDS011;43474;46.510;6.686;2024-01-25T13:08:56;1.35;;;0.95;;
57643;SDS011;43474;46.510;6.686;2024-01-25T13:11:22;0.77;;;0.75;;
57643;SDS011;43474;46.510;6.686;2024-01-25T13:13:52;0.73;;;0.67;;
57643;SDS011;43474;46.510;6.686;2024-01-25T13:16:25;1.65;;;0.90;;
57643;SDS011;43474;46.510;6.686;2024-01-25T13:19:01;1.10;;;1.00;;
57643;SDS011;43474;46.510;6.686;2024-01-25T13:21:27;2.40;;;1.00;;
57643;SDS011;43474;46.510;6.686;2024-01-25T13:23:53;1.48;;;0.95;;
57643;SDS011;43474;46.510;6.686;2024-01-25T13:26:19;2.00;;;1.20;;
57643;SDS011;43474;46.510;6.686;2024-01-25T13:28:46;2.63;;;1.00;;
57643;SDS011;43474;46.510;6.686;2024-01-25T13:31:12;1.35;;;0.80;;
57643;SDS011;43474;46.510;6.686;2024-01-25T13:33:38;1.35;;;0.75;;
57643;SDS011;43474;46.510;6.686;2024-01-25T13:36:03;0.80;;;0.55;;
57643;SDS011;43474;46.510;6.686;2024-01-25T13:38:34;1.23;;;0.90;;
57643;SDS011;43474;46.510;6.686;2024-01-25T13:41:00;1.27;;;0.65;;
57643;SDS011;43474;46.510;6.686;2024-01-25T13:43:26;0.73;;;0.60;;
57643;SDS011;43474;46.510;6.686;2024-01-25T13:45:54;0.50;;;0.38;;
57643;SDS011;43474;46.510;6.686;2024-01-25T13:48:20;0.40;;;0.30;;
57643;SDS011;43474;46.510;6.686;2024-01-25T13:50:46;0.20;;;0.17;;
57643;SDS011;43474;46.510;6.686;2024-01-25T13:53:12;0.63;;;0.25;;
57643;SDS011;43474;46.510;6.686;2024-01-25T13:55:38;0.93;;;0.70;;
57643;SDS011;43474;46.510;6.686;2024-01-25T13:58:03;1.77;;;0.60;;
57643;SDS011;43474;46.510;6.686;2024-01-25T14:00:29;1.67;;;0.80;;
57643;SDS011;43474;46.510;6.686;2024-01-25T14:02:55;1.05;;;0.70;;
57643;SDS011;43474;46.510;6.686;2024-01-25T14:05:21;1.17;;;0.85;;
57643;SDS011;43474;46.510;6.686;2024-01-25T14:07:48;0.90;;;0.60;;
57643;SDS011;43474;46.510;6.686;2024-01-25T14:10:15;2.22;;;0.57;;
57643;SDS011;43474;46.510;6.686;2024-01-25T14:12:41;0.43;;;0.32;;
57643;SDS011;43474;46.510;6.686;2024-01-25T14:15:07;1.90;;;0.50;;
57643;SDS011;43474;46.510;6.686;2024-01-25T14:17:33;0.77;;;0.57;;
57643;SDS011;43474;46.510;6.686;2024-01-25T14:20:01;1.38;;;0.73;;
57643;SDS011;43474;46.510;6.686;2024-01-25T14:22:28;0.93;;;0.70;;
57643;SDS011;43474;46.510;6.686;2024-01-25T14:24:54;1.55;;;1.08;;
57643;SDS011;43474;46.510;6.686;2024-01-25T14:27:20;3.90;;;1.67;;
57643;SDS011;43474;46.510;6.686;2024-01-25T14:29:45;0.80;;;0.60;;
57643;SDS011;43474;46.510;6.686;2024-01-25T14:32:12;0.60;;;0.43;;
57643;SDS011;43474;46.510;6.686;2024-01-25T14:34:38;0.80;;;0.60;;
57643;SDS011;43474;46.510;6.686;2024-01-25T14:37:08;0.65;;;0.63;;
57643;SDS011;43474;46.510;6.686;2024-01-25T14:39:36;1.13;;;0.60;;
57643;SDS011;43474;46.510;6.686;2024-01-25T14:42:02;1.00;;;0.50;;
57643;SDS011;43474;46.510;6.686;2024-01-25T14:44:28;0.43;;;0.43;;
57643;SDS011;43474;46.510;6.686;2024-01-25T14:46:54;0.68;;;0.45;;